Pearl Of Scandinavia — OWFU2 — position and weather

sailwx.info

Track history (hours):
 
Tides and Currents Weather Stations Pressure Air Temp Water Temp Dewpoint Dewpoint Depression Visibility Wind Speed Wind Dir Waves Ship Positions

Pearl Of Scandinavia

Last reported at 2017-Oct-22 07:30 UTC. Time now 2017-Oct-22 07:59 UTC.
Position N 55°42' E 012°36'.

Length 176.4 m; beam 34 m; draft 6.215 m.

Type: Ship. MMSI: 219945000.

Date/timePositionNaut miles runAvg speedWind from/ knotsBaromVisibWave heightAir tempDewpointWater temp
2017-Oct-22 07:30N 55°42' E 012°36'510.4
2017-Oct-22 07:01N 55°47' E 012°41'713.3
2017-Oct-22 06:30N 55°53' E 012°40'714.5
2017-Oct-22 06:00N 56°00' E 012°40'713.2
2017-Oct-22 05:31N 56°06' E 012°33'612.1
2017-Oct-22 05:01N 56°11' E 012°28'713.7
2017-Oct-22 04:30N 56°18' E 012°24'714.8
2017-Oct-22 04:00N 56°25' E 012°20'815.0
2017-Oct-22 03:30N 56°32' E 012°17'4514.9
2017-Oct-22 00:29N 57°15' E 011°51'816.2
2017-Oct-22 00:00N 57°21' E 011°44'816.1
2017-Oct-21 23:30N 57°28' E 011°36'816.1
2017-Oct-21 23:00N 57°35' E 011°28'816.5
2017-Oct-21 22:30N 57°43' E 011°22'916.9
2017-Oct-21 22:00N 57°51' E 011°16'917.5
2017-Oct-21 21:30N 57°59' E 011°11'1117.3
2017-Oct-21 20:53N 58°09' E 011°06'717.2
2017-Oct-21 20:30N 58°16' E 011°02'816.8
2017-Oct-21 20:00N 58°24' E 010°58'917.2
2017-Oct-21 19:30N 58°32' E 010°53'917.3
2017-Oct-21 19:00N 58°40' E 010°48'917.7
2017-Oct-21 18:30N 58°49' E 010°45'918.3
2017-Oct-21 18:00N 58°58' E 010°42'918.0
2017-Oct-21 17:30N 59°07' E 010°39'918.4
2017-Oct-21 17:00N 59°16' E 010°36'918.8
2017-Oct-21 16:30N 59°25' E 010°33'918.7
2017-Oct-21 16:01N 59°34' E 010°38'714.9
2017-Oct-21 15:30N 59°41' E 010°36'816.4
2017-Oct-21 15:00N 59°50' E 010°34'713.2
2017-Oct-21 14:30N 59°54' E 010°45'0 0.1
2017-Oct-21 13:29N 59°54' E 010°45'0 0.0
2017-Oct-21 12:59N 59°54' E 010°45'0 0.0
2017-Oct-21 12:29N 59°54' E 010°45'0 0.0
2017-Oct-21 11:59N 59°54' E 010°45'0 0.0
2017-Oct-21 11:29N 59°54' E 010°45'0 0.0
2017-Oct-21 10:59N 59°54' E 010°45'0 0.0
2017-Oct-21 10:29N 59°54' E 010°45'0 0.0
2017-Oct-21 09:59N 59°54' E 010°45'0 0.0
2017-Oct-21 09:29N 59°54' E 010°45'0 0.0
2017-Oct-21 08:59N 59°54' E 010°45'0 0.0
2017-Oct-21 08:29N 59°54' E 010°45'0 0.0
2017-Oct-21 07:59N 59°54' E 010°45'0 0.8
2017-Oct-21 07:30N 59°54' E 010°44'713.4
2017-Oct-21 07:00N 59°49' E 010°35'814.7
2017-Oct-21 06:30N 59°42' E 010°36'714.0
2017-Oct-21 06:00N 59°35' E 010°38'715.0
2017-Oct-21 05:30N 59°28' E 010°34'815.3
2017-Oct-21 05:00N 59°20' E 010°36'815.3
2017-Oct-21 04:30N 59°13' E 010°39'815.5
2017-Oct-21 04:00N 59°05' E 010°41'816.2
2017-Oct-21 03:30N 58°57' E 010°43'815.9
2017-Oct-21 03:00N 58°49' E 010°44'815.9
2017-Oct-21 02:30N 58°41' E 010°46'815.9
2017-Oct-21 02:00N 58°34' E 010°51'816.0
2017-Oct-21 01:30N 58°26' E 010°55'815.5
2017-Oct-21 01:00N 58°19' E 011°00'815.6
2017-Oct-21 00:30N 58°11' E 011°05'816.1
2017-Oct-21 00:00N 58°04' E 011°10'815.8
2017-Oct-20 23:30N 57°56' E 011°14'815.9
2017-Oct-20 23:00N 57°49' E 011°19'815.8
2017-Oct-20 22:30N 57°41' E 011°25'816.6
2017-Oct-20 22:00N 57°34' E 011°31'816.7
2017-Oct-20 21:30N 57°26' E 011°38'816.6
2017-Oct-20 21:00N 57°19' E 011°46'816.4
2017-Oct-20 20:30N 57°12' E 011°54'6015.8
2017-Oct-20 16:43N 56°15' E 012°26'316.0
2017-Oct-20 16:30N 56°12' E 012°28'917.9
2017-Oct-20 16:00N 56°05' E 012°37'917.1
2017-Oct-20 15:30N 55°57' E 012°43'816.4
2017-Oct-20 15:00N 55°48' E 012°43'714.1
2017-Oct-20 14:30N 55°42' E 012°36'0 0.5
2017-Oct-20 13:30N 55°42' E 012°36'0 0.0
2017-Oct-20 13:00N 55°42' E 012°36'0 0.0
2017-Oct-20 12:30N 55°42' E 012°36'0 0.0
2017-Oct-20 12:00N 55°42' E 012°36'0 0.0
2017-Oct-20 11:30N 55°42' E 012°36'0 0.0
2017-Oct-20 11:00N 55°42' E 012°36'0 0.0
2017-Oct-20 10:30N 55°42' E 012°36'0 0.0
2017-Oct-20 10:00N 55°42' E 012°36'0 0.0
2017-Oct-20 09:30N 55°42' E 012°36'0 0.0
2017-Oct-20 09:00N 55°42' E 012°36'0 0.0
2017-Oct-20 08:30N 55°42' E 012°36'0 0.0
2017-Oct-20 08:00N 55°42' E 012°36'0 0.4
2017-Oct-20 07:30N 55°42' E 012°36'510.3
2017-Oct-20 07:00N 55°46' E 012°41'714.0
2017-Oct-20 06:30N 55°53' E 012°40'715.0
2017-Oct-20 06:00N 56°01' E 012°40'713.9
2017-Oct-20 05:30N 56°06' E 012°32'713.6
2017-Oct-20 05:00N 56°12' E 012°27'814.7
2017-Oct-20 04:30N 56°20' E 012°22'815.0
2017-Oct-20 03:58N 56°27' E 012°19'1415.0
2017-Oct-20 03:01N 56°41' E 012°14'014.8
2017-Oct-20 03:00N 56°41' E 012°14'1214.7
2017-Oct-20 02:10N 56°53' E 012°08'814.3
2017-Oct-20 01:35N 57°01' E 012°02'114.4
2017-Oct-20 01:31N 57°02' E 012°02'1414.8
2017-Oct-20 00:35N 57°15' E 011°51'115.8
2017-Oct-20 00:30N 57°16' E 011°50'815.8
2017-Oct-20 00:00N 57°22' E 011°42'815.5
2017-Oct-19 23:30N 57°29' E 011°34'815.7
2017-Oct-19 23:00N 57°36' E 011°28'816.4
2017-Oct-19 22:30N 57°43' E 011°22'816.5
2017-Oct-19 22:00N 57°51' E 011°16'917.8
2017-Oct-19 21:29N 57°60' E 011°11'917.4
2017-Oct-19 20:59N 58°08' E 011°06'817.4
2017-Oct-19 20:30N 58°16' E 011°02'917.4
2017-Oct-19 20:00N 58°25' E 010°57'917.4
2017-Oct-19 19:29N 58°33' E 010°52'817.2
2017-Oct-19 19:00N 58°41' E 010°48'917.8
2017-Oct-19 18:30N 58°50' E 010°45'918.1
2017-Oct-19 18:00N 58°59' E 010°42'918.3
2017-Oct-19 17:31N 59°08' E 010°39'1019.1
2017-Oct-19 17:01N 59°17' E 010°36'1019.2
2017-Oct-19 16:31N 59°27' E 010°33'918.5
2017-Oct-19 16:01N 59°36' E 010°38'714.2
2017-Oct-19 15:30N 59°43' E 010°35'816.7
2017-Oct-19 15:00N 59°51' E 010°35'611.1
2017-Oct-19 14:30N 59°54' E 010°45'0 0.0
2017-Oct-19 14:00N 59°54' E 010°45'0 0.0
2017-Oct-19 13:30N 59°54' E 010°45'0 0.0
2017-Oct-19 13:00N 59°54' E 010°45'0 0.0
2017-Oct-19 12:30N 59°54' E 010°45'0 0.0
2017-Oct-19 12:00N 59°54' E 010°45'0 0.0
2017-Oct-19 11:30N 59°54' E 010°45'0 0.0
2017-Oct-19 11:00N 59°54' E 010°45'0 0.0
2017-Oct-19 10:30N 59°54' E 010°45'0 0.0
2017-Oct-19 10:00N 59°54' E 010°45'0 0.0
2017-Oct-19 09:30N 59°54' E 010°45'0 0.0
2017-Oct-19 09:00N 59°54' E 010°45'0 0.0
2017-Oct-19 08:30N 59°54' E 010°45'0 0.0
2017-Oct-19 08:00N 59°54' E 010°45'0 0.6
2017-Oct-19 07:30N 59°54' E 010°44'714.2
2017-Oct-19 07:01N 59°49' E 010°35'814.8
2017-Oct-19 06:30N 59°41' E 010°36'714.0
2017-Oct-19 06:01N 59°35' E 010°38'815.8
2017-Oct-19 05:31N 59°27' E 010°34'815.8
2017-Oct-19 05:01N 59°19' E 010°36'815.8
2017-Oct-19 04:30N 59°11' E 010°39'815.8
2017-Oct-19 04:01N 59°03' E 010°38'815.9
2017-Oct-19 03:31N 58°56' E 010°36'815.7
2017-Oct-19 03:01N 58°48' E 010°37'815.6
2017-Oct-19 02:31N 58°40' E 010°38'815.8
2017-Oct-19 02:01N 58°32' E 010°39'816.1
2017-Oct-19 01:30N 58°24' E 010°43'1215.9
2017-Oct-19 00:46N 58°13' E 010°50'716.5
2017-Oct-19 00:22N 58°07' E 010°54'616.9
2017-Oct-19 00:01N 58°01' E 010°58'816.7
2017-Oct-18 23:30N 57°53' E 011°03'816.4
2017-Oct-18 23:00N 57°45' E 011°08'817.1
2017-Oct-18 22:30N 57°38' E 011°17'917.2
2017-Oct-18 22:01N 57°31' E 011°26'917.0
2017-Oct-18 21:30N 57°23' E 011°31'916.8
2017-Oct-18 20:59N 57°15' E 011°36'817.0
2017-Oct-18 20:30N 57°07' E 011°41'816.8
2017-Oct-18 20:01N 56°59' E 011°45'816.0
2017-Oct-18 19:31N 56°52' E 011°52'1115.6
2017-Oct-18 18:50N 56°43' E 012°02'3815.9
2017-Oct-18 16:26N 56°08' E 012°32'716.6
2017-Oct-18 16:01N 56°03' E 012°39'816.6
2017-Oct-18 15:31N 55°55' E 012°44'816.1
2017-Oct-18 15:01N 55°47' E 012°43'6 5.9
2017-Oct-18 13:58N 55°42' E 012°36'0 0.0
2017-Oct-18 13:28N 55°42' E 012°36'0 0.0
2017-Oct-18 12:58N 55°42' E 012°36'0 0.0
2017-Oct-18 12:28N 55°42' E 012°36'0 0.0
2017-Oct-18 11:58N 55°42' E 012°36'0 0.0
2017-Oct-18 11:28N 55°42' E 012°36'0 0.0
2017-Oct-18 10:58N 55°42' E 012°36'0 0.0
2017-Oct-18 10:28N 55°42' E 012°36'0 0.0
2017-Oct-18 09:58N 55°42' E 012°36'0 0.0
2017-Oct-18 09:28N 55°42' E 012°36'0 0.0
2017-Oct-18 08:58N 55°42' E 012°36'0 0.0
2017-Oct-18 08:28N 55°42' E 012°36'2 4.0
2017-Oct-18 08:01N 55°43' E 012°38'714.5
2017-Oct-18 07:31N 55°50' E 012°42'815.2
2017-Oct-18 07:01N 55°58' E 012°40'815.0
2017-Oct-18 06:31N 56°05' E 012°36'816.6
2017-Oct-18 06:00N 56°12' E 012°27'6818.5
2017-Oct-18 02:20N 57°16' E 011°49'717.2
2017-Oct-18 01:57N 57°22' E 011°43'817.5
2017-Oct-18 01:31N 57°29' E 011°36'917.9
2017-Oct-18 01:00N 57°37' E 011°29'917.7
2017-Oct-18 00:30N 57°45' E 011°22'917.4
2017-Oct-18 00:00N 57°53' E 011°15'916.8
2017-Oct-17 23:29N 58°01' E 011°08'815.5
2017-Oct-17 22:59N 58°08' E 011°03'816.0
2017-Oct-17 22:30N 58°16' E 010°60'815.8
2017-Oct-17 22:00N 58°23' E 010°55'714.8
2017-Oct-17 21:31N 58°30' E 010°51'714.9
2017-Oct-17 21:01N 58°37' E 010°47'714.5
2017-Oct-17 20:30N 58°44' E 010°43'714.0
2017-Oct-17 20:01N 58°51' E 010°39'713.2
2017-Oct-17 19:30N 58°57' E 010°35'611.5
2017-Oct-17 19:00N 59°03' E 010°35'612.7
2017-Oct-17 18:31N 59°09' E 010°38'611.8
2017-Oct-17 18:01N 59°15' E 010°37'612.2
2017-Oct-17 17:31N 59°21' E 010°35'612.1
2017-Oct-17 17:01N 59°27' E 010°33'611.9
2017-Oct-17 16:31N 59°33' E 010°37'611.5
2017-Oct-17 16:01N 59°38' E 010°37'713.2
2017-Oct-17 15:30N 59°45' E 010°33'714.4
2017-Oct-17 15:01N 59°52' E 010°37'5 8.8
2017-Oct-17 14:30N 59°54' E 010°45'0 0.0
2017-Oct-17 14:00N 59°54' E 010°45'0 0.0
2017-Oct-17 13:30N 59°54' E 010°45'0 0.0
2017-Oct-17 13:00N 59°54' E 010°45'0 0.0
2017-Oct-17 12:30N 59°54' E 010°45'0 0.0
2017-Oct-17 12:00N 59°54' E 010°45'0 0.0
2017-Oct-17 11:30N 59°54' E 010°45'0 0.0
2017-Oct-17 11:00N 59°54' E 010°45'0 0.0
2017-Oct-17 10:30N 59°54' E 010°45'0 0.0
2017-Oct-17 10:00N 59°54' E 010°45'0 0.0
2017-Oct-17 09:30N 59°54' E 010°45'0 0.0
2017-Oct-17 09:00N 59°54' E 010°45'0 0.0
2017-Oct-17 08:30N 59°54' E 010°45'0 0.0
2017-Oct-17 08:00N 59°54' E 010°45'0 0.5
2017-Oct-17 07:30N 59°54' E 010°44'713.9
2017-Oct-17 07:00N 59°49' E 010°35'714.9
2017-Oct-17 06:30N 59°41' E 010°36'714.1
2017-Oct-17 06:01N 59°35' E 010°38'816.1
2017-Oct-17 05:31N 59°27' E 010°34'815.8
2017-Oct-17 05:01N 59°19' E 010°36'815.9
2017-Oct-17 04:31N 59°11' E 010°39'816.2
2017-Oct-17 04:01N 59°03' E 010°39'816.0
2017-Oct-17 03:31N 58°55' E 010°41'815.9
2017-Oct-17 03:01N 58°47' E 010°44'815.8
2017-Oct-17 02:31N 58°40' E 010°47'816.0
2017-Oct-17 02:01N 58°32' E 010°52'816.3
2017-Oct-17 01:30N 58°24' E 010°57'1716.5
2017-Oct-17 00:27N 58°07' E 011°07'716.3
2017-Oct-17 00:00N 58°01' E 011°12'816.0
2017-Oct-16 23:31N 57°53' E 011°16'816.5
2017-Oct-16 23:00N 57°45' E 011°22'816.6
2017-Oct-16 22:31N 57°38' E 011°28'816.4
2017-Oct-16 22:00N 57°30' E 011°33'816.1
2017-Oct-16 21:30N 57°23' E 011°41'816.4
2017-Oct-16 21:00N 57°16' E 011°49'816.4
2017-Oct-16 20:30N 57°09' E 011°56'5516.1
2017-Oct-16 17:04N 56°16' E 012°25'315.7
2017-Oct-16 16:52N 56°13' E 012°28'616.0
2017-Oct-16 16:30N 56°08' E 012°32'815.5
2017-Oct-16 16:01N 56°02' E 012°40'816.1
2017-Oct-16 15:31N 55°54' E 012°44'815.9
2017-Oct-16 15:01N 55°46' E 012°42'5 5.0
2017-Oct-16 13:57N 55°42' E 012°36'0 0.0
2017-Oct-16 13:27N 55°42' E 012°36'0 0.0
2017-Oct-16 12:57N 55°42' E 012°36'0 0.0
2017-Oct-16 12:27N 55°42' E 012°36'0 0.0
2017-Oct-16 11:57N 55°42' E 012°36'0 0.0
2017-Oct-16 11:27N 55°42' E 012°36'0 0.0
2017-Oct-16 10:57N 55°42' E 012°36'0 0.0
2017-Oct-16 10:27N 55°42' E 012°36'0 0.0
2017-Oct-16 09:57N 55°42' E 012°36'0 0.0
2017-Oct-16 08:33N 55°42' E 012°36'0 0.0
2017-Oct-16 08:21N 55°42' E 012°36'0 0.0
2017-Oct-16 07:57N 55°42' E 012°36'0 0.4
2017-Oct-16 07:31N 55°42' E 012°36'510.2
2017-Oct-16 07:00N 55°46' E 012°41'713.9
2017-Oct-16 06:30N 55°53' E 012°40'714.4
2017-Oct-16 06:01N 56°01' E 012°40'714.4
2017-Oct-16 05:30N 56°06' E 012°33'714.5
2017-Oct-16 05:01N 56°13' E 012°27'714.7
2017-Oct-16 04:31N 56°20' E 012°22'1114.8
2017-Oct-16 03:45N 56°31' E 012°17'4715.4
2017-Oct-16 00:43N 57°15' E 011°51'315.2
2017-Oct-16 00:30N 57°18' E 011°48'815.4
2017-Oct-16 00:00N 57°25' E 011°41'816.0
2017-Oct-15 23:31N 57°31' E 011°34'816.0
2017-Oct-15 23:00N 57°39' E 011°27'816.0
2017-Oct-15 22:31N 57°46' E 011°21'816.6
2017-Oct-15 22:00N 57°54' E 011°16'816.2
2017-Oct-15 21:29N 58°02' E 011°10'816.6
2017-Oct-15 21:00N 58°09' E 011°06'916.8
2017-Oct-15 20:29N 58°18' E 011°01'816.9
2017-Oct-15 20:00N 58°26' E 010°57'817.0
2017-Oct-15 19:31N 58°34' E 010°52'917.4
2017-Oct-15 19:01N 58°42' E 010°47'918.0
2017-Oct-15 18:31N 58°51' E 010°45'917.8
2017-Oct-15 18:01N 58°60' E 010°42'816.7
2017-Oct-15 17:31N 59°08' E 010°39'816.8
2017-Oct-15 17:00N 59°16' E 010°36'917.1
2017-Oct-15 16:30N 59°25' E 010°33'816.8
2017-Oct-15 16:01N 59°33' E 010°36'815.2
2017-Oct-15 15:31N 59°40' E 010°37'815.0
2017-Oct-15 15:00N 59°48' E 010°34'8 8.2
2017-Oct-15 13:59N 59°54' E 010°45'0 0.0
2017-Oct-15 13:29N 59°54' E 010°45'0 0.0
2017-Oct-15 12:59N 59°54' E 010°45'0 0.0
2017-Oct-15 12:29N 59°54' E 010°45'0 0.0
2017-Oct-15 11:59N 59°54' E 010°45'0 0.0
2017-Oct-15 11:29N 59°54' E 010°45'0 0.0
2017-Oct-15 10:59N 59°54' E 010°45'0 0.0
2017-Oct-15 10:29N 59°54' E 010°45'0 0.0
2017-Oct-15 09:59N 59°54' E 010°45'0 0.0
2017-Oct-15 09:29N 59°54' E 010°45'0 0.0
2017-Oct-15 08:59N 59°54' E 010°45'0 0.0
2017-Oct-15 08:29N 59°54' E 010°45'0 0.0
2017-Oct-15 07:59N 59°54' E 010°45'0 0.2
2017-Oct-15 07:30N 59°54' E 010°45'613.1
2017-Oct-15 07:00N 59°50' E 010°35'815.2
2017-Oct-15 06:30N 59°42' E 010°36'713.8
2017-Oct-15 06:00N 59°35' E 010°38'815.1
2017-Oct-15 05:30N 59°28' E 010°34'815.0
2017-Oct-15 05:00N 59°20' E 010°36'815.6
2017-Oct-15 04:30N 59°13' E 010°38'816.4
2017-Oct-15 04:00N 59°05' E 010°41'815.9
2017-Oct-15 03:30N 58°57' E 010°42'815.9
2017-Oct-15 03:00N 58°49' E 010°44'815.8
2017-Oct-15 02:30N 58°41' E 010°46'816.1
2017-Oct-15 02:00N 58°33' E 010°51'815.9
2017-Oct-15 01:30N 58°26' E 010°56'815.6
2017-Oct-15 01:00N 58°18' E 011°00'1316.1
2017-Oct-15 00:11N 58°06' E 011°08'316.6
2017-Oct-14 23:59N 58°03' E 011°10'816.3
2017-Oct-14 23:29N 57°55' E 011°15'815.9
2017-Oct-14 23:00N 57°48' E 011°20'816.2
2017-Oct-14 22:30N 57°40' E 011°26'816.5
2017-Oct-14 22:00N 57°33' E 011°31'816.2
2017-Oct-14 21:30N 57°25' E 011°38'816.5
2017-Oct-14 20:59N 57°18' E 011°47'816.6
2017-Oct-14 20:29N 57°11' E 011°54'1017.3
2017-Oct-14 19:56N 57°02' E 012°01'817.0
2017-Oct-14 19:28N 56°55' E 012°07'1216.8
2017-Oct-14 18:46N 56°44' E 012°13'3516.4
2017-Oct-14 16:37N 56°10' E 012°30'215.4
2017-Oct-14 16:30N 56°08' E 012°32'714.6
2017-Oct-14 16:00N 56°02' E 012°40'815.5
2017-Oct-14 15:30N 55°55' E 012°44'815.5
2017-Oct-14 15:00N 55°47' E 012°42'612.3
2017-Oct-14 14:30N 55°42' E 012°36'0 0.4
2017-Oct-14 13:59N 55°42' E 012°36'0 0.0
2017-Oct-14 13:29N 55°42' E 012°36'0 0.0
2017-Oct-14 12:59N 55°42' E 012°36'0 0.0
2017-Oct-14 12:29N 55°42' E 012°36'0 0.0
2017-Oct-14 11:59N 55°42' E 012°36'0 0.0
2017-Oct-14 11:29N 55°42' E 012°36'0 0.0
2017-Oct-14 10:59N 55°42' E 012°36'0 0.0
2017-Oct-14 10:29N 55°42' E 012°36'0 0.0
2017-Oct-14 09:59N 55°42' E 012°36'0 0.0
2017-Oct-14 09:29N 55°42' E 012°36'0 0.0
2017-Oct-14 08:59N 55°42' E 012°36'0 0.0
2017-Oct-14 08:29N 55°42' E 012°36'0 0.0
2017-Oct-14 07:59N 55°42' E 012°36'0 0.7
2017-Oct-14 07:30N 55°42' E 012°36'510.5
2017-Oct-14 07:00N 55°47' E 012°42'714.3
2017-Oct-14 06:30N 55°54' E 012°40'815.5
2017-Oct-14 06:00N 56°02' E 012°40'815.9
2017-Oct-14 05:30N 56°08' E 012°31'6916.1
2017-Oct-14 01:12N 57°14' E 011°52'517.0
2017-Oct-14 00:56N 57°17' E 011°48'717.1
2017-Oct-14 00:31N 57°23' E 011°40'917.1
2017-Oct-14 00:01N 57°31' E 011°32'917.3
2017-Oct-13 23:30N 57°39' E 011°26'817.0
2017-Oct-13 23:01N 57°47' E 011°20'917.4
2017-Oct-13 22:30N 57°55' E 011°14'916.8
2017-Oct-13 21:56N 58°04' E 011°09'716.2
2017-Oct-13 21:29N 58°11' E 011°05'816.0
2017-Oct-13 21:00N 58°19' E 011°00'815.8
2017-Oct-13 20:29N 58°26' E 010°56'815.7
2017-Oct-13 20:00N 58°34' E 010°52'816.1
2017-Oct-13 19:30N 58°41' E 010°48'815.6
2017-Oct-13 19:00N 58°49' E 010°45'815.7
2017-Oct-13 18:30N 58°57' E 010°43'815.9
2017-Oct-13 18:00N 59°05' E 010°40'816.1
2017-Oct-13 17:30N 59°13' E 010°37'816.3
2017-Oct-13 17:00N 59°21' E 010°35'816.4
2017-Oct-13 16:30N 59°29' E 010°34'816.6
2017-Oct-13 16:00N 59°37' E 010°37'713.7
2017-Oct-13 15:30N 59°44' E 010°34'816.0
2017-Oct-13 15:00N 59°51' E 010°36'5 9.9
2017-Oct-13 14:30N 59°54' E 010°45'0 0.0
2017-Oct-13 13:59N 59°54' E 010°45'0 0.0
2017-Oct-13 13:29N 59°54' E 010°45'0 0.0
2017-Oct-13 12:59N 59°54' E 010°45'0 0.0
2017-Oct-13 12:29N 59°54' E 010°45'0 0.0
2017-Oct-13 11:59N 59°54' E 010°45'0 0.0
2017-Oct-13 11:29N 59°54' E 010°45'0 0.0
2017-Oct-13 10:59N 59°54' E 010°45'0 0.0
2017-Oct-13 10:29N 59°54' E 010°45'0 0.0
2017-Oct-13 09:59N 59°54' E 010°45'0 0.0
2017-Oct-13 09:29N 59°54' E 010°45'0 0.0
2017-Oct-13 08:59N 59°54' E 010°45'0 0.0
2017-Oct-13 08:29N 59°54' E 010°45'0 0.0
2017-Oct-13 07:59N 59°54' E 010°45'3 5.5
2017-Oct-13 07:30N 59°53' E 010°40'715.3
2017-Oct-13 07:00N 59°46' E 010°34'713.4
2017-Oct-13 06:30N 59°39' E 010°37'815.6
2017-Oct-13 06:00N 59°32' E 010°36'917.5
2017-Oct-13 05:30N 59°23' E 010°35'917.8
2017-Oct-13 05:00N 59°14' E 010°38'917.5
2017-Oct-13 04:30N 59°06' E 010°39'917.2
2017-Oct-13 04:00N 58°57' E 010°42'917.6
2017-Oct-13 03:30N 58°48' E 010°44'918.1
2017-Oct-13 03:00N 58°39' E 010°47'918.0
2017-Oct-13 02:30N 58°31' E 010°52'917.5
2017-Oct-13 02:00N 58°22' E 010°57'917.5
2017-Oct-13 01:28N 58°14' E 011°02'1016.9
2017-Oct-13 00:54N 58°05' E 011°09'717.4
2017-Oct-13 00:30N 57°58' E 011°13'917.0
2017-Oct-13 00:00N 57°50' E 011°19'816.5
2017-Oct-12 23:30N 57°42' E 011°23'816.3
2017-Oct-12 23:00N 57°34' E 011°28'815.9
2017-Oct-12 22:30N 57°28' E 011°36'815.5
2017-Oct-12 22:00N 57°21' E 011°43'815.2
2017-Oct-12 21:30N 57°14' E 011°51'815.0
2017-Oct-12 20:57N 57°07' E 011°58'6014.2
2017-Oct-12 16:43N 56°10' E 012°31'314.6
2017-Oct-12 16:30N 56°07' E 012°33'713.6
2017-Oct-12 16:00N 56°02' E 012°40'714.5
2017-Oct-12 15:30N 55°55' E 012°44'815.2
2017-Oct-12 15:00N 55°47' E 012°42'612.1
2017-Oct-12 14:31N 55°42' E 012°36'0 0.4
2017-Oct-12 14:00N 55°42' E 012°36'0 0.0
2017-Oct-12 13:30N 55°42' E 012°36'0 0.0
2017-Oct-12 13:00N 55°42' E 012°36'0 0.0
2017-Oct-12 12:30N 55°42' E 012°36'0 0.0
2017-Oct-12 11:54N 55°42' E 012°36'0 0.0
2017-Oct-12 11:27N 55°42' E 012°36'0 0.0
2017-Oct-12 11:00N 55°42' E 012°36'0 0.0
2017-Oct-12 10:30N 55°42' E 012°36'0 0.0
2017-Oct-12 10:00N 55°42' E 012°36'0 0.0
2017-Oct-12 09:30N 55°42' E 012°36'0 0.0
2017-Oct-12 09:00N 55°42' E 012°36'0 0.0
2017-Oct-12 08:30N 55°42' E 012°36'0 0.0
2017-Oct-12 08:00N 55°42' E 012°36'0 0.6
2017-Oct-12 07:31N 55°42' E 012°36'  
Track history (hours):
 
Tides and Currents Weather Stations Pressure Air Temp Water Temp Dewpoint Dewpoint Depression Visibility Wind Speed Wind Dir Waves Ship Positions

Pearl Of Scandinavia

Last reported at 2017-Oct-22 07:30 UTC. Time now 2017-Oct-22 07:59 UTC.
Position N 55°42' E 012°36'.

Length 176.4 m; beam 34 m; draft 6.215 m.

Type: Ship. MMSI: 219945000.

Date/timePositionNaut miles runAvg speedWind from/ knotsBaromVisibWave heightAir tempDewpointWater temp
2017-Oct-22 07:30N 55°42' E 012°36'510.4
2017-Oct-22 07:01N 55°47' E 012°41'713.3
2017-Oct-22 06:30N 55°53' E 012°40'714.5
2017-Oct-22 06:00N 56°00' E 012°40'713.2
2017-Oct-22 05:31N 56°06' E 012°33'612.1
2017-Oct-22 05:01N 56°11' E 012°28'713.7
2017-Oct-22 04:30N 56°18' E 012°24'714.8
2017-Oct-22 04:00N 56°25' E 012°20'815.0
2017-Oct-22 03:30N 56°32' E 012°17'4514.9
2017-Oct-22 00:29N 57°15' E 011°51'816.2
2017-Oct-22 00:00N 57°21' E 011°44'816.1
2017-Oct-21 23:30N 57°28' E 011°36'816.1
2017-Oct-21 23:00N 57°35' E 011°28'816.5
2017-Oct-21 22:30N 57°43' E 011°22'916.9
2017-Oct-21 22:00N 57°51' E 011°16'917.5
2017-Oct-21 21:30N 57°59' E 011°11'1117.3
2017-Oct-21 20:53N 58°09' E 011°06'717.2
2017-Oct-21 20:30N 58°16' E 011°02'816.8
2017-Oct-21 20:00N 58°24' E 010°58'917.2
2017-Oct-21 19:30N 58°32' E 010°53'917.3
2017-Oct-21 19:00N 58°40' E 010°48'917.7
2017-Oct-21 18:30N 58°49' E 010°45'918.3
2017-Oct-21 18:00N 58°58' E 010°42'918.0
2017-Oct-21 17:30N 59°07' E 010°39'918.4
2017-Oct-21 17:00N 59°16' E 010°36'918.8
2017-Oct-21 16:30N 59°25' E 010°33'918.7
2017-Oct-21 16:01N 59°34' E 010°38'714.9
2017-Oct-21 15:30N 59°41' E 010°36'816.4
2017-Oct-21 15:00N 59°50' E 010°34'713.2
2017-Oct-21 14:30N 59°54' E 010°45'0 0.1
2017-Oct-21 13:29N 59°54' E 010°45'0 0.0
2017-Oct-21 12:59N 59°54' E 010°45'0 0.0
2017-Oct-21 12:29N 59°54' E 010°45'0 0.0
2017-Oct-21 11:59N 59°54' E 010°45'0 0.0
2017-Oct-21 11:29N 59°54' E 010°45'0 0.0
2017-Oct-21 10:59N 59°54' E 010°45'0 0.0
2017-Oct-21 10:29N 59°54' E 010°45'0 0.0
2017-Oct-21 09:59N 59°54' E 010°45'0 0.0
2017-Oct-21 09:29N 59°54' E 010°45'0 0.0
2017-Oct-21 08:59N 59°54' E 010°45'0 0.0
2017-Oct-21 08:29N 59°54' E 010°45'0 0.0
2017-Oct-21 07:59N 59°54' E 010°45'0 0.8
2017-Oct-21 07:30N 59°54' E 010°44'713.4
2017-Oct-21 07:00N 59°49' E 010°35'814.7
2017-Oct-21 06:30N 59°42' E 010°36'714.0
2017-Oct-21 06:00N 59°35' E 010°38'715.0
2017-Oct-21 05:30N 59°28' E 010°34'815.3
2017-Oct-21 05:00N 59°20' E 010°36'815.3
2017-Oct-21 04:30N 59°13' E 010°39'815.5
2017-Oct-21 04:00N 59°05' E 010°41'816.2
2017-Oct-21 03:30N 58°57' E 010°43'815.9
2017-Oct-21 03:00N 58°49' E 010°44'815.9
2017-Oct-21 02:30N 58°41' E 010°46'815.9
2017-Oct-21 02:00N 58°34' E 010°51'816.0
2017-Oct-21 01:30N 58°26' E 010°55'815.5
2017-Oct-21 01:00N 58°19' E 011°00'815.6
2017-Oct-21 00:30N 58°11' E 011°05'816.1
2017-Oct-21 00:00N 58°04' E 011°10'815.8
2017-Oct-20 23:30N 57°56' E 011°14'815.9
2017-Oct-20 23:00N 57°49' E 011°19'815.8
2017-Oct-20 22:30N 57°41' E 011°25'816.6
2017-Oct-20 22:00N 57°34' E 011°31'816.7
2017-Oct-20 21:30N 57°26' E 011°38'816.6
2017-Oct-20 21:00N 57°19' E 011°46'816.4
2017-Oct-20 20:30N 57°12' E 011°54'6015.8
2017-Oct-20 16:43N 56°15' E 012°26'316.0
2017-Oct-20 16:30N 56°12' E 012°28'917.9
2017-Oct-20 16:00N 56°05' E 012°37'917.1
2017-Oct-20 15:30N 55°57' E 012°43'816.4
2017-Oct-20 15:00N 55°48' E 012°43'714.1
2017-Oct-20 14:30N 55°42' E 012°36'0 0.5
2017-Oct-20 13:30N 55°42' E 012°36'0 0.0
2017-Oct-20 13:00N 55°42' E 012°36'0 0.0
2017-Oct-20 12:30N 55°42' E 012°36'0 0.0
2017-Oct-20 12:00N 55°42' E 012°36'0 0.0
2017-Oct-20 11:30N 55°42' E 012°36'0 0.0
2017-Oct-20 11:00N 55°42' E 012°36'0 0.0
2017-Oct-20 10:30N 55°42' E 012°36'0 0.0
2017-Oct-20 10:00N 55°42' E 012°36'0 0.0
2017-Oct-20 09:30N 55°42' E 012°36'0 0.0
2017-Oct-20 09:00N 55°42' E 012°36'0 0.0
2017-Oct-20 08:30N 55°42' E 012°36'0 0.0
2017-Oct-20 08:00N 55°42' E 012°36'0 0.4
2017-Oct-20 07:30N 55°42' E 012°36'510.3
2017-Oct-20 07:00N 55°46' E 012°41'714.0
2017-Oct-20 06:30N 55°53' E 012°40'715.0
2017-Oct-20 06:00N 56°01' E 012°40'713.9
2017-Oct-20 05:30N 56°06' E 012°32'713.6
2017-Oct-20 05:00N 56°12' E 012°27'814.7
2017-Oct-20 04:30N 56°20' E 012°22'815.0
2017-Oct-20 03:58N 56°27' E 012°19'1415.0
2017-Oct-20 03:01N 56°41' E 012°14'014.8
2017-Oct-20 03:00N 56°41' E 012°14'1214.7
2017-Oct-20 02:10N 56°53' E 012°08'814.3
2017-Oct-20 01:35N 57°01' E 012°02'114.4
2017-Oct-20 01:31N 57°02' E 012°02'1414.8
2017-Oct-20 00:35N 57°15' E 011°51'115.8
2017-Oct-20 00:30N 57°16' E 011°50'815.8
2017-Oct-20 00:00N 57°22' E 011°42'815.5
2017-Oct-19 23:30N 57°29' E 011°34'815.7
2017-Oct-19 23:00N 57°36' E 011°28'816.4
2017-Oct-19 22:30N 57°43' E 011°22'816.5
2017-Oct-19 22:00N 57°51' E 011°16'917.8
2017-Oct-19 21:29N 57°60' E 011°11'917.4
2017-Oct-19 20:59N 58°08' E 011°06'817.4
2017-Oct-19 20:30N 58°16' E 011°02'917.4
2017-Oct-19 20:00N 58°25' E 010°57'917.4
2017-Oct-19 19:29N 58°33' E 010°52'817.2
2017-Oct-19 19:00N 58°41' E 010°48'917.8
2017-Oct-19 18:30N 58°50' E 010°45'918.1
2017-Oct-19 18:00N 58°59' E 010°42'918.3
2017-Oct-19 17:31N 59°08' E 010°39'1019.1
2017-Oct-19 17:01N 59°17' E 010°36'1019.2
2017-Oct-19 16:31N 59°27' E 010°33'918.5
2017-Oct-19 16:01N 59°36' E 010°38'714.2
2017-Oct-19 15:30N 59°43' E 010°35'816.7
2017-Oct-19 15:00N 59°51' E 010°35'611.1
2017-Oct-19 14:30N 59°54' E 010°45'0 0.0
2017-Oct-19 14:00N 59°54' E 010°45'0 0.0
2017-Oct-19 13:30N 59°54' E 010°45'0 0.0
2017-Oct-19 13:00N 59°54' E 010°45'0 0.0
2017-Oct-19 12:30N 59°54' E 010°45'0 0.0
2017-Oct-19 12:00N 59°54' E 010°45'0 0.0
2017-Oct-19 11:30N 59°54' E 010°45'0 0.0
2017-Oct-19 11:00N 59°54' E 010°45'0 0.0
2017-Oct-19 10:30N 59°54' E 010°45'0 0.0
2017-Oct-19 10:00N 59°54' E 010°45'0 0.0
2017-Oct-19 09:30N 59°54' E 010°45'0 0.0
2017-Oct-19 09:00N 59°54' E 010°45'0 0.0
2017-Oct-19 08:30N 59°54' E 010°45'0 0.0
2017-Oct-19 08:00N 59°54' E 010°45'0 0.6
2017-Oct-19 07:30N 59°54' E 010°44'714.2
2017-Oct-19 07:01N 59°49' E 010°35'814.8
2017-Oct-19 06:30N 59°41' E 010°36'714.0
2017-Oct-19 06:01N 59°35' E 010°38'815.8
2017-Oct-19 05:31N 59°27' E 010°34'815.8
2017-Oct-19 05:01N 59°19' E 010°36'815.8
2017-Oct-19 04:30N 59°11' E 010°39'815.8
2017-Oct-19 04:01N 59°03' E 010°38'815.9
2017-Oct-19 03:31N 58°56' E 010°36'815.7
2017-Oct-19 03:01N 58°48' E 010°37'815.6
2017-Oct-19 02:31N 58°40' E 010°38'815.8
2017-Oct-19 02:01N 58°32' E 010°39'816.1
2017-Oct-19 01:30N 58°24' E 010°43'1215.9
2017-Oct-19 00:46N 58°13' E 010°50'716.5
2017-Oct-19 00:22N 58°07' E 010°54'616.9
2017-Oct-19 00:01N 58°01' E 010°58'816.7
2017-Oct-18 23:30N 57°53' E 011°03'816.4
2017-Oct-18 23:00N 57°45' E 011°08'817.1
2017-Oct-18 22:30N 57°38' E 011°17'917.2
2017-Oct-18 22:01N 57°31' E 011°26'917.0
2017-Oct-18 21:30N 57°23' E 011°31'916.8
2017-Oct-18 20:59N 57°15' E 011°36'817.0
2017-Oct-18 20:30N 57°07' E 011°41'816.8
2017-Oct-18 20:01N 56°59' E 011°45'816.0
2017-Oct-18 19:31N 56°52' E 011°52'1115.6
2017-Oct-18 18:50N 56°43' E 012°02'3815.9
2017-Oct-18 16:26N 56°08' E 012°32'716.6
2017-Oct-18 16:01N 56°03' E 012°39'816.6
2017-Oct-18 15:31N 55°55' E 012°44'816.1
2017-Oct-18 15:01N 55°47' E 012°43'6 5.9
2017-Oct-18 13:58N 55°42' E 012°36'0 0.0
2017-Oct-18 13:28N 55°42' E 012°36'0 0.0
2017-Oct-18 12:58N 55°42' E 012°36'0 0.0
2017-Oct-18 12:28N 55°42' E 012°36'0 0.0
2017-Oct-18 11:58N 55°42' E 012°36'0 0.0
2017-Oct-18 11:28N 55°42' E 012°36'0 0.0
2017-Oct-18 10:58N 55°42' E 012°36'0 0.0
2017-Oct-18 10:28N 55°42' E 012°36'0 0.0
2017-Oct-18 09:58N 55°42' E 012°36'0 0.0
2017-Oct-18 09:28N 55°42' E 012°36'0 0.0
2017-Oct-18 08:58N 55°42' E 012°36'0 0.0
2017-Oct-18 08:28N 55°42' E 012°36'2 4.0
2017-Oct-18 08:01N 55°43' E 012°38'714.5
2017-Oct-18 07:31N 55°50' E 012°42'815.2
2017-Oct-18 07:01N 55°58' E 012°40'815.0
2017-Oct-18 06:31N 56°05' E 012°36'816.6
2017-Oct-18 06:00N 56°12' E 012°27'6818.5
2017-Oct-18 02:20N 57°16' E 011°49'717.2
2017-Oct-18 01:57N 57°22' E 011°43'817.5
2017-Oct-18 01:31N 57°29' E 011°36'917.9
2017-Oct-18 01:00N 57°37' E 011°29'917.7
2017-Oct-18 00:30N 57°45' E 011°22'917.4
2017-Oct-18 00:00N 57°53' E 011°15'916.8
2017-Oct-17 23:29N 58°01' E 011°08'815.5
2017-Oct-17 22:59N 58°08' E 011°03'816.0
2017-Oct-17 22:30N 58°16' E 010°60'815.8
2017-Oct-17 22:00N 58°23' E 010°55'714.8
2017-Oct-17 21:31N 58°30' E 010°51'714.9
2017-Oct-17 21:01N 58°37' E 010°47'714.5
2017-Oct-17 20:30N 58°44' E 010°43'714.0
2017-Oct-17 20:01N 58°51' E 010°39'713.2
2017-Oct-17 19:30N 58°57' E 010°35'611.5
2017-Oct-17 19:00N 59°03' E 010°35'612.7
2017-Oct-17 18:31N 59°09' E 010°38'611.8
2017-Oct-17 18:01N 59°15' E 010°37'612.2
2017-Oct-17 17:31N 59°21' E 010°35'612.1
2017-Oct-17 17:01N 59°27' E 010°33'611.9
2017-Oct-17 16:31N 59°33' E 010°37'611.5
2017-Oct-17 16:01N 59°38' E 010°37'713.2
2017-Oct-17 15:30N 59°45' E 010°33'714.4
2017-Oct-17 15:01N 59°52' E 010°37'5 8.8
2017-Oct-17 14:30N 59°54' E 010°45'0 0.0
2017-Oct-17 14:00N 59°54' E 010°45'0 0.0
2017-Oct-17 13:30N 59°54' E 010°45'0 0.0
2017-Oct-17 13:00N 59°54' E 010°45'0 0.0
2017-Oct-17 12:30N 59°54' E 010°45'0 0.0
2017-Oct-17 12:00N 59°54' E 010°45'0 0.0
2017-Oct-17 11:30N 59°54' E 010°45'0 0.0
2017-Oct-17 11:00N 59°54' E 010°45'0 0.0
2017-Oct-17 10:30N 59°54' E 010°45'0 0.0
2017-Oct-17 10:00N 59°54' E 010°45'0 0.0
2017-Oct-17 09:30N 59°54' E 010°45'0 0.0
2017-Oct-17 09:00N 59°54' E 010°45'0 0.0
2017-Oct-17 08:30N 59°54' E 010°45'0 0.0
2017-Oct-17 08:00N 59°54' E 010°45'0 0.5
2017-Oct-17 07:30N 59°54' E 010°44'713.9
2017-Oct-17 07:00N 59°49' E 010°35'714.9
2017-Oct-17 06:30N 59°41' E 010°36'714.1
2017-Oct-17 06:01N 59°35' E 010°38'816.1
2017-Oct-17 05:31N 59°27' E 010°34'815.8
2017-Oct-17 05:01N 59°19' E 010°36'815.9
2017-Oct-17 04:31N 59°11' E 010°39'816.2
2017-Oct-17 04:01N 59°03' E 010°39'816.0
2017-Oct-17 03:31N 58°55' E 010°41'815.9
2017-Oct-17 03:01N 58°47' E 010°44'815.8
2017-Oct-17 02:31N 58°40' E 010°47'816.0
2017-Oct-17 02:01N 58°32' E 010°52'816.3
2017-Oct-17 01:30N 58°24' E 010°57'1716.5
2017-Oct-17 00:27N 58°07' E 011°07'716.3
2017-Oct-17 00:00N 58°01' E 011°12'816.0
2017-Oct-16 23:31N 57°53' E 011°16'816.5
2017-Oct-16 23:00N 57°45' E 011°22'816.6
2017-Oct-16 22:31N 57°38' E 011°28'816.4
2017-Oct-16 22:00N 57°30' E 011°33'816.1
2017-Oct-16 21:30N 57°23' E 011°41'816.4
2017-Oct-16 21:00N 57°16' E 011°49'816.4
2017-Oct-16 20:30N 57°09' E 011°56'5516.1
2017-Oct-16 17:04N 56°16' E 012°25'315.7
2017-Oct-16 16:52N 56°13' E 012°28'616.0
2017-Oct-16 16:30N 56°08' E 012°32'815.5
2017-Oct-16 16:01N 56°02' E 012°40'816.1
2017-Oct-16 15:31N 55°54' E 012°44'815.9
2017-Oct-16 15:01N 55°46' E 012°42'5 5.0
2017-Oct-16 13:57N 55°42' E 012°36'0 0.0
2017-Oct-16 13:27N 55°42' E 012°36'0 0.0
2017-Oct-16 12:57N 55°42' E 012°36'0 0.0
2017-Oct-16 12:27N 55°42' E 012°36'0 0.0
2017-Oct-16 11:57N 55°42' E 012°36'0 0.0
2017-Oct-16 11:27N 55°42' E 012°36'0 0.0
2017-Oct-16 10:57N 55°42' E 012°36'0 0.0
2017-Oct-16 10:27N 55°42' E 012°36'0 0.0
2017-Oct-16 09:57N 55°42' E 012°36'0 0.0
2017-Oct-16 08:33N 55°42' E 012°36'0 0.0
2017-Oct-16 08:21N 55°42' E 012°36'0 0.0
2017-Oct-16 07:57N 55°42' E 012°36'0 0.4
2017-Oct-16 07:31N 55°42' E 012°36'510.2
2017-Oct-16 07:00N 55°46' E 012°41'713.9
2017-Oct-16 06:30N 55°53' E 012°40'714.4
2017-Oct-16 06:01N 56°01' E 012°40'714.4
2017-Oct-16 05:30N 56°06' E 012°33'714.5
2017-Oct-16 05:01N 56°13' E 012°27'714.7
2017-Oct-16 04:31N 56°20' E 012°22'1114.8
2017-Oct-16 03:45N 56°31' E 012°17'4715.4
2017-Oct-16 00:43N 57°15' E 011°51'315.2
2017-Oct-16 00:30N 57°18' E 011°48'815.4
2017-Oct-16 00:00N 57°25' E 011°41'816.0
2017-Oct-15 23:31N 57°31' E 011°34'816.0
2017-Oct-15 23:00N 57°39' E 011°27'816.0
2017-Oct-15 22:31N 57°46' E 011°21'816.6
2017-Oct-15 22:00N 57°54' E 011°16'816.2
2017-Oct-15 21:29N 58°02' E 011°10'816.6
2017-Oct-15 21:00N 58°09' E 011°06'916.8
2017-Oct-15 20:29N 58°18' E 011°01'816.9
2017-Oct-15 20:00N 58°26' E 010°57'817.0
2017-Oct-15 19:31N 58°34' E 010°52'917.4
2017-Oct-15 19:01N 58°42' E 010°47'918.0
2017-Oct-15 18:31N 58°51' E 010°45'917.8
2017-Oct-15 18:01N 58°60' E 010°42'816.7
2017-Oct-15 17:31N 59°08' E 010°39'816.8
2017-Oct-15 17:00N 59°16' E 010°36'917.1
2017-Oct-15 16:30N 59°25' E 010°33'816.8
2017-Oct-15 16:01N 59°33' E 010°36'815.2
2017-Oct-15 15:31N 59°40' E 010°37'815.0
2017-Oct-15 15:00N 59°48' E 010°34'8 8.2
2017-Oct-15 13:59N 59°54' E 010°45'0 0.0
2017-Oct-15 13:29N 59°54' E 010°45'0 0.0
2017-Oct-15 12:59N 59°54' E 010°45'0 0.0
2017-Oct-15 12:29N 59°54' E 010°45'0 0.0
2017-Oct-15 11:59N 59°54' E 010°45'0 0.0
2017-Oct-15 11:29N 59°54' E 010°45'0 0.0
2017-Oct-15 10:59N 59°54' E 010°45'0 0.0
2017-Oct-15 10:29N 59°54' E 010°45'0 0.0
2017-Oct-15 09:59N 59°54' E 010°45'0 0.0
2017-Oct-15 09:29N 59°54' E 010°45'0 0.0
2017-Oct-15 08:59N 59°54' E 010°45'0 0.0
2017-Oct-15 08:29N 59°54' E 010°45'0 0.0
2017-Oct-15 07:59N 59°54' E 010°45'0 0.2
2017-Oct-15 07:30N 59°54' E 010°45'613.1
2017-Oct-15 07:00N 59°50' E 010°35'815.2
2017-Oct-15 06:30N 59°42' E 010°36'713.8
2017-Oct-15 06:00N 59°35' E 010°38'815.1
2017-Oct-15 05:30N 59°28' E 010°34'815.0
2017-Oct-15 05:00N 59°20' E 010°36'815.6
2017-Oct-15 04:30N 59°13' E 010°38'816.4
2017-Oct-15 04:00N 59°05' E 010°41'815.9
2017-Oct-15 03:30N 58°57' E 010°42'815.9
2017-Oct-15 03:00N 58°49' E 010°44'815.8
2017-Oct-15 02:30N 58°41' E 010°46'816.1
2017-Oct-15 02:00N 58°33' E 010°51'815.9
2017-Oct-15 01:30N 58°26' E 010°56'815.6
2017-Oct-15 01:00N 58°18' E 011°00'1316.1
2017-Oct-15 00:11N 58°06' E 011°08'316.6
2017-Oct-14 23:59N 58°03' E 011°10'816.3
2017-Oct-14 23:29N 57°55' E 011°15'815.9
2017-Oct-14 23:00N 57°48' E 011°20'816.2
2017-Oct-14 22:30N 57°40' E 011°26'816.5
2017-Oct-14 22:00N 57°33' E 011°31'816.2
2017-Oct-14 21:30N 57°25' E 011°38'816.5
2017-Oct-14 20:59N 57°18' E 011°47'816.6
2017-Oct-14 20:29N 57°11' E 011°54'1017.3
2017-Oct-14 19:56N 57°02' E 012°01'817.0
2017-Oct-14 19:28N 56°55' E 012°07'1216.8
2017-Oct-14 18:46N 56°44' E 012°13'3516.4
2017-Oct-14 16:37N 56°10' E 012°30'215.4
2017-Oct-14 16:30N 56°08' E 012°32'714.6
2017-Oct-14 16:00N 56°02' E 012°40'815.5
2017-Oct-14 15:30N 55°55' E 012°44'815.5
2017-Oct-14 15:00N 55°47' E 012°42'612.3
2017-Oct-14 14:30N 55°42' E 012°36'0 0.4
2017-Oct-14 13:59N 55°42' E 012°36'0 0.0
2017-Oct-14 13:29N 55°42' E 012°36'0 0.0
2017-Oct-14 12:59N 55°42' E 012°36'0 0.0
2017-Oct-14 12:29N 55°42' E 012°36'0 0.0
2017-Oct-14 11:59N 55°42' E 012°36'0 0.0
2017-Oct-14 11:29N 55°42' E 012°36'0 0.0
2017-Oct-14 10:59N 55°42' E 012°36'0 0.0
2017-Oct-14 10:29N 55°42' E 012°36'0 0.0
2017-Oct-14 09:59N 55°42' E 012°36'0 0.0
2017-Oct-14 09:29N 55°42' E 012°36'0 0.0
2017-Oct-14 08:59N 55°42' E 012°36'0 0.0
2017-Oct-14 08:29N 55°42' E 012°36'0 0.0
2017-Oct-14 07:59N 55°42' E 012°36'0 0.7
2017-Oct-14 07:30N 55°42' E 012°36'510.5
2017-Oct-14 07:00N 55°47' E 012°42'714.3
2017-Oct-14 06:30N 55°54' E 012°40'815.5
2017-Oct-14 06:00N 56°02' E 012°40'815.9
2017-Oct-14 05:30N 56°08' E 012°31'6916.1
2017-Oct-14 01:12N 57°14' E 011°52'517.0
2017-Oct-14 00:56N 57°17' E 011°48'717.1
2017-Oct-14 00:31N 57°23' E 011°40'917.1
2017-Oct-14 00:01N 57°31' E 011°32'917.3
2017-Oct-13 23:30N 57°39' E 011°26'817.0
2017-Oct-13 23:01N 57°47' E 011°20'917.4
2017-Oct-13 22:30N 57°55' E 011°14'916.8
2017-Oct-13 21:56N 58°04' E 011°09'716.2
2017-Oct-13 21:29N 58°11' E 011°05'816.0
2017-Oct-13 21:00N 58°19' E 011°00'815.8
2017-Oct-13 20:29N 58°26' E 010°56'815.7
2017-Oct-13 20:00N 58°34' E 010°52'816.1
2017-Oct-13 19:30N 58°41' E 010°48'815.6
2017-Oct-13 19:00N 58°49' E 010°45'815.7
2017-Oct-13 18:30N 58°57' E 010°43'815.9
2017-Oct-13 18:00N 59°05' E 010°40'816.1
2017-Oct-13 17:30N 59°13' E 010°37'816.3
2017-Oct-13 17:00N 59°21' E 010°35'816.4
2017-Oct-13 16:30N 59°29' E 010°34'816.6
2017-Oct-13 16:00N 59°37' E 010°37'713.7
2017-Oct-13 15:30N 59°44' E 010°34'816.0
2017-Oct-13 15:00N 59°51' E 010°36'5 9.9
2017-Oct-13 14:30N 59°54' E 010°45'0 0.0
2017-Oct-13 13:59N 59°54' E 010°45'0 0.0
2017-Oct-13 13:29N 59°54' E 010°45'0 0.0
2017-Oct-13 12:59N 59°54' E 010°45'0 0.0
2017-Oct-13 12:29N 59°54' E 010°45'0 0.0
2017-Oct-13 11:59N 59°54' E 010°45'0 0.0
2017-Oct-13 11:29N 59°54' E 010°45'0 0.0
2017-Oct-13 10:59N 59°54' E 010°45'0 0.0
2017-Oct-13 10:29N 59°54' E 010°45'0 0.0
2017-Oct-13 09:59N 59°54' E 010°45'0 0.0
2017-Oct-13 09:29N 59°54' E 010°45'0 0.0
2017-Oct-13 08:59N 59°54' E 010°45'0 0.0
2017-Oct-13 08:29N 59°54' E 010°45'0 0.0
2017-Oct-13 07:59N 59°54' E 010°45'3 5.5
2017-Oct-13 07:30N 59°53' E 010°40'715.3
2017-Oct-13 07:00N 59°46' E 010°34'713.4
2017-Oct-13 06:30N 59°39' E 010°37'815.6
2017-Oct-13 06:00N 59°32' E 010°36'917.5
2017-Oct-13 05:30N 59°23' E 010°35'917.8
2017-Oct-13 05:00N 59°14' E 010°38'917.5
2017-Oct-13 04:30N 59°06' E 010°39'917.2
2017-Oct-13 04:00N 58°57' E 010°42'917.6
2017-Oct-13 03:30N 58°48' E 010°44'918.1
2017-Oct-13 03:00N 58°39' E 010°47'918.0
2017-Oct-13 02:30N 58°31' E 010°52'917.5
2017-Oct-13 02:00N 58°22' E 010°57'917.5
2017-Oct-13 01:28N 58°14' E 011°02'1016.9
2017-Oct-13 00:54N 58°05' E 011°09'717.4
2017-Oct-13 00:30N 57°58' E 011°13'917.0
2017-Oct-13 00:00N 57°50' E 011°19'816.5
2017-Oct-12 23:30N 57°42' E 011°23'816.3
2017-Oct-12 23:00N 57°34' E 011°28'815.9
2017-Oct-12 22:30N 57°28' E 011°36'815.5
2017-Oct-12 22:00N 57°21' E 011°43'815.2
2017-Oct-12 21:30N 57°14' E 011°51'815.0
2017-Oct-12 20:57N 57°07' E 011°58'6014.2
2017-Oct-12 16:43N 56°10' E 012°31'314.6
2017-Oct-12 16:30N 56°07' E 012°33'713.6
2017-Oct-12 16:00N 56°02' E 012°40'714.5
2017-Oct-12 15:30N 55°55' E 012°44'815.2
2017-Oct-12 15:00N 55°47' E 012°42'612.1
2017-Oct-12 14:31N 55°42' E 012°36'0 0.4
2017-Oct-12 14:00N 55°42' E 012°36'0 0.0
2017-Oct-12 13:30N 55°42' E 012°36'0 0.0
2017-Oct-12 13:00N 55°42' E 012°36'0 0.0
2017-Oct-12 12:30N 55°42' E 012°36'0 0.0
2017-Oct-12 11:54N 55°42' E 012°36'0 0.0
2017-Oct-12 11:27N 55°42' E 012°36'0 0.0
2017-Oct-12 11:00N 55°42' E 012°36'0 0.0
2017-Oct-12 10:30N 55°42' E 012°36'0 0.0
2017-Oct-12 10:00N 55°42' E 012°36'0 0.0
2017-Oct-12 09:30N 55°42' E 012°36'0 0.0
2017-Oct-12 09:00N 55°42' E 012°36'0 0.0
2017-Oct-12 08:30N 55°42' E 012°36'0 0.0
2017-Oct-12 08:00N 55°42' E 012°36'0 0.6
2017-Oct-12 07:31N 55°42' E 012°36'  

Dump ship's entire track history